createdAt,value
2023-01-19T00:01:47.713Z,73.91
2023-01-19T00:04:17.907Z,73.38
2023-01-19T00:06:48.034Z,73.87
2023-01-19T00:09:18.204Z,73.57
2023-01-19T00:11:48.328Z,73.68
2023-01-19T00:14:18.442Z,73.84
2023-01-19T00:16:48.695Z,73.27
2023-01-19T00:19:18.903Z,73.41
2023-01-19T00:21:49.114Z,73.90
2023-01-19T00:24:19.426Z,73.29
2023-01-19T00:26:57.993Z,73.65
2023-01-19T00:29:34.542Z,73.18
2023-01-19T00:32:06.920Z,73.81
2023-01-19T00:34:39.756Z,73.20
2023-01-19T00:37:10.668Z,73.56
2023-01-19T00:39:40.969Z,73.53
2023-01-19T00:42:32.904Z,73.00
2023-01-19T00:45:03.019Z,73.71
2023-01-19T00:47:33.524Z,73.43
2023-01-19T00:50:04.059Z,73.26
2023-01-19T00:52:34.247Z,73.19
2023-01-19T00:55:05.124Z,73.47
2023-01-19T00:57:35.432Z,73.34
2023-01-19T01:00:09.068Z,73.76
2023-01-19T01:02:41.603Z,73.44
2023-01-19T01:05:12.633Z,73.08
2023-01-19T01:07:44.746Z,73.25
2023-01-19T01:10:24.327Z,73.76
2023-01-19T01:12:57.612Z,73.48
2023-01-19T01:15:30.133Z,73.76
2023-01-19T01:18:00.309Z,73.64
2023-01-19T01:20:31.276Z,73.27
2023-01-19T01:23:01.786Z,73.43
2023-01-19T01:25:35.469Z,73.77
2023-01-19T01:28:08.803Z,73.96
2023-01-19T01:30:41.150Z,73.22
2023-01-19T01:33:14.107Z,73.38
2023-01-19T01:35:44.294Z,73.48
2023-01-19T01:38:14.425Z,73.38
2023-01-19T01:40:44.940Z,73.20
2023-01-19T01:43:16.916Z,73.63
2023-01-19T01:45:47.478Z,73.44
2023-01-19T01:48:30.907Z,73.70
2023-01-19T01:51:24.876Z,73.63
2023-01-19T01:54:00.728Z,72.90
2023-01-19T01:56:44.061Z,73.28
2023-01-19T01:59:26.307Z,73.04
2023-01-19T02:02:18.226Z,73.21
2023-01-19T02:05:00.619Z,72.76
2023-01-19T02:08:00.927Z,73.74
2023-01-19T02:10:50.576Z,72.96
2023-01-19T02:13:21.386Z,73.23
2023-01-19T02:15:54.790Z,73.12
2023-01-19T02:18:28.705Z,73.01
2023-01-19T02:21:26.445Z,73.07
2023-01-19T02:23:59.116Z,73.27
2023-01-19T02:26:37.916Z,73.28
2023-01-19T02:29:11.719Z,73.18
2023-01-19T02:31:42.649Z,73.24
2023-01-19T02:34:16.187Z,72.85
2023-01-19T02:36:56.360Z,73.82
2023-01-19T02:39:33.639Z,73.25
2023-01-19T02:42:17.325Z,73.75
2023-01-19T02:44:50.569Z,73.43
2023-01-19T02:47:20.854Z,73.53
2023-01-19T02:49:57.992Z,73.48
2023-01-19T02:52:28.210Z,73.84
2023-01-19T02:55:18.314Z,73.79
2023-01-19T02:58:05.550Z,73.22
2023-01-19T03:01:24.046Z,73.80
2023-01-19T03:04:22.756Z,73.42
2023-01-19T03:07:01.058Z,73.95
2023-01-19T03:09:58.553Z,74.09
2023-01-19T03:12:51.997Z,73.44
2023-01-19T03:15:40.385Z,73.96
2023-01-19T03:18:15.044Z,73.77
2023-01-19T03:20:46.454Z,73.62
2023-01-19T03:23:17.684Z,73.18
2023-01-19T03:25:50.260Z,73.47
2023-01-19T03:28:24.311Z,73.54
2023-01-19T03:31:00.755Z,74.15
2023-01-19T03:33:35.370Z,73.59
2023-01-19T03:36:13.920Z,73.43
2023-01-19T03:38:46.993Z,74.16
2023-01-19T03:41:19.844Z,74.00
2023-01-19T03:43:52.156Z,73.52
2023-01-19T03:46:24.235Z,74.19
2023-01-19T03:48:55.254Z,73.77
2023-01-19T03:51:25.678Z,73.18
2023-01-19T03:53:55.791Z,73.52
2023-01-19T03:56:26.291Z,73.70
2023-01-19T03:58:57.063Z,73.75
2023-01-19T04:01:27.418Z,74.09
2023-01-19T04:03:58.577Z,73.39
2023-01-19T04:06:28.735Z,74.11
2023-01-19T04:09:06.761Z,73.63
2023-01-19T04:11:36.909Z,72.98
2023-01-19T04:14:07.122Z,73.07
2023-01-19T04:16:37.288Z,73.33
2023-01-19T04:19:07.408Z,73.61
2023-01-19T04:21:37.605Z,73.85
2023-01-19T04:24:09.143Z,74.12
2023-01-19T04:26:39.443Z,73.22
2023-01-19T04:29:09.932Z,73.23
2023-01-19T04:31:40.119Z,73.34
2023-01-19T04:34:10.492Z,73.46
2023-01-19T04:36:40.628Z,73.42
2023-01-19T04:39:11.856Z,72.91
2023-01-19T04:41:41.986Z,73.51
2023-01-19T04:44:12.153Z,73.16
2023-01-19T04:46:42.374Z,72.90
2023-01-19T04:49:12.511Z,73.03
2023-01-19T04:51:42.696Z,73.40
2023-01-19T04:54:12.868Z,73.06
2023-01-19T04:56:43.277Z,73.25
2023-01-19T04:59:13.899Z,72.98
2023-01-19T05:01:44.193Z,72.68
2023-01-19T05:04:14.520Z,73.02
2023-01-19T05:06:44.623Z,72.62
2023-01-19T05:09:15.523Z,73.06
2023-01-19T05:11:46.486Z,72.70
2023-01-19T05:14:16.636Z,72.58
2023-01-19T05:16:46.791Z,73.02
2023-01-19T05:19:16.976Z,73.35
2023-01-19T05:21:47.187Z,72.81
2023-01-19T05:24:17.345Z,72.93
2023-01-19T05:26:47.548Z,73.03
2023-01-19T05:29:17.637Z,73.12
2023-01-19T05:31:48.508Z,72.65
2023-01-19T05:34:18.890Z,72.27
2023-01-19T05:36:50.023Z,72.78
2023-01-19T05:39:20.568Z,72.58
2023-01-19T05:41:50.862Z,72.86
2023-01-19T05:44:22.758Z,72.54
2023-01-19T05:46:53.098Z,73.17
2023-01-19T05:49:23.377Z,72.94
2023-01-19T05:51:53.546Z,72.42
2023-01-19T05:54:24.009Z,72.90
2023-01-19T05:56:54.326Z,72.83
2023-01-19T05:59:24.515Z,73.05
2023-01-19T06:01:55.063Z,73.11
2023-01-19T06:04:25.640Z,72.99
2023-01-19T06:06:55.771Z,71.91
2023-01-19T06:09:27.497Z,72.56
2023-01-19T06:11:59.601Z,72.75
2023-01-19T06:14:29.762Z,72.11
2023-01-19T06:16:59.919Z,72.61
2023-01-19T06:19:30.367Z,72.56
2023-01-19T06:22:01.072Z,73.03
2023-01-19T06:24:31.299Z,72.80
2023-01-19T06:27:01.422Z,72.70
2023-01-19T06:29:31.593Z,72.86
2023-01-19T06:32:01.879Z,73.03
2023-01-19T06:34:32.047Z,72.81
2023-01-19T06:37:02.115Z,72.94
2023-01-19T06:39:32.331Z,72.70
2023-01-19T06:42:02.368Z,72.95
2023-01-19T06:44:32.614Z,73.46
2023-01-19T06:47:15.151Z,73.31
2023-01-19T06:49:46.232Z,72.72
2023-01-19T06:52:17.696Z,73.13
2023-01-19T06:54:47.880Z,73.16
2023-01-19T06:57:19.924Z,72.89
2023-01-19T06:59:50.056Z,72.64
2023-01-19T07:02:27.360Z,72.99
2023-01-19T07:04:58.198Z,73.32
2023-01-19T07:07:28.382Z,73.88
2023-01-19T07:09:58.623Z,74.00
2023-01-19T07:12:30.673Z,73.97
2023-01-19T07:15:00.895Z,73.54
2023-01-19T07:17:31.115Z,73.59
2023-01-19T07:20:01.923Z,73.08
2023-01-19T07:22:32.065Z,73.49
2023-01-19T07:25:02.220Z,73.89
2023-01-19T07:27:32.303Z,73.78
2023-01-19T07:30:02.602Z,73.86
2023-01-19T07:32:32.735Z,73.15
2023-01-19T07:35:02.990Z,74.14
2023-01-19T07:37:33.100Z,73.64
2023-01-19T07:40:04.013Z,73.33
2023-01-19T07:42:34.159Z,73.73
2023-01-19T07:45:07.441Z,74.31
2023-01-19T07:47:40.061Z,73.12
2023-01-19T07:50:17.596Z,73.56
2023-01-19T07:52:50.732Z,74.12
2023-01-19T07:55:22.603Z,73.86
2023-01-19T07:57:52.781Z,73.77
2023-01-19T08:00:24.934Z,74.12
2023-01-19T08:03:00.541Z,73.89
2023-01-19T08:05:36.071Z,74.20
2023-01-19T08:08:06.343Z,73.91
2023-01-19T08:10:36.498Z,73.55
2023-01-19T08:13:06.818Z,73.99
2023-01-19T08:15:37.729Z,73.30
2023-01-19T08:18:10.030Z,74.17
2023-01-19T08:20:40.171Z,74.22
2023-01-19T08:23:10.865Z,73.51
2023-01-19T08:25:44.595Z,73.93
2023-01-19T08:28:16.956Z,73.73
2023-01-19T08:30:54.176Z,73.65
2023-01-19T08:33:25.468Z,73.62
2023-01-19T08:35:55.673Z,73.97
2023-01-19T08:38:25.921Z,73.49
2023-01-19T08:40:56.044Z,73.32
2023-01-19T08:43:26.203Z,73.65
2023-01-19T08:45:56.618Z,73.20
2023-01-19T08:48:26.756Z,73.34
2023-01-19T08:50:57.331Z,73.32
2023-01-19T08:53:27.605Z,72.94
2023-01-19T08:56:01.443Z,73.23
2023-01-19T08:58:31.615Z,72.87
2023-01-19T09:01:03.208Z,73.13
2023-01-19T09:03:35.743Z,73.19
2023-01-19T09:06:07.463Z,73.47
2023-01-19T09:08:37.711Z,73.08
2023-01-19T09:11:11.715Z,72.93
2023-01-19T09:13:41.990Z,72.91
2023-01-19T09:16:13.534Z,73.00
2023-01-19T09:18:45.264Z,73.13
2023-01-19T09:21:15.415Z,73.07
2023-01-19T09:23:45.583Z,72.84
2023-01-19T09:26:16.239Z,72.81
2023-01-19T09:28:46.399Z,73.29
2023-01-19T09:31:16.672Z,72.87
2023-01-19T09:33:46.982Z,72.85
2023-01-19T09:36:17.264Z,73.28
2023-01-19T09:38:47.484Z,72.56
2023-01-19T09:41:22.534Z,72.78
2023-01-19T09:43:58.687Z,72.73
2023-01-19T09:46:28.953Z,72.92
2023-01-19T09:49:05.071Z,73.08
2023-01-19T09:51:41.581Z,72.98
2023-01-19T09:54:19.531Z,72.91
2023-01-19T09:56:52.455Z,72.84
2023-01-19T09:59:30.242Z,72.59
2023-01-19T10:02:06.296Z,72.62
2023-01-19T10:04:54.806Z,72.72
2023-01-19T10:07:58.598Z,72.39
2023-01-19T10:10:36.128Z,72.86
2023-01-19T10:13:24.962Z,72.78
2023-01-19T10:16:10.015Z,72.52
2023-01-19T10:18:51.782Z,72.96
2023-01-19T10:21:28.236Z,72.76
2023-01-19T10:24:06.927Z,72.37
2023-01-19T10:26:47.568Z,71.84
2023-01-19T10:29:23.520Z,72.07
2023-01-19T10:32:17.607Z,72.17
2023-01-19T10:34:49.350Z,71.81
2023-01-19T10:37:37.258Z,71.70
2023-01-19T10:40:10.287Z,71.49
2023-01-19T10:42:41.935Z,71.29
2023-01-19T10:45:25.978Z,70.74
2023-01-19T10:48:00.902Z,71.51
2023-01-19T10:50:34.135Z,71.84
2023-01-19T10:53:06.375Z,71.85
2023-01-19T10:55:40.404Z,71.27
2023-01-19T10:58:31.683Z,70.76
2023-01-19T11:01:23.588Z,70.96
2023-01-19T11:03:56.100Z,71.06
2023-01-19T11:06:30.956Z,71.22
2023-01-19T11:09:27.233Z,71.17
2023-01-19T11:12:00.001Z,71.08
2023-01-19T11:14:31.429Z,71.13
2023-01-19T11:17:01.635Z,71.27
2023-01-19T11:19:33.841Z,71.50
2023-01-19T11:22:22.962Z,71.13
2023-01-19T11:24:53.358Z,70.90
2023-01-19T11:27:34.847Z,71.00
2023-01-19T11:30:26.347Z,70.46
2023-01-19T11:32:56.940Z,70.83
2023-01-19T11:35:39.647Z,70.75
2023-01-19T11:38:12.694Z,70.77
2023-01-19T11:40:53.253Z,71.38
2023-01-19T11:43:25.453Z,71.15
2023-01-19T11:45:57.558Z,71.04
2023-01-19T11:48:36.272Z,71.02
2023-01-19T11:51:14.373Z,71.49
2023-01-19T11:53:49.415Z,70.91
2023-01-19T11:56:26.341Z,70.55
2023-01-19T11:58:56.904Z,70.62
2023-01-19T12:01:35.756Z,70.97
2023-01-19T12:04:16.724Z,70.89
2023-01-19T12:06:54.143Z,70.52
2023-01-19T12:09:39.032Z,70.79
2023-01-19T12:12:23.026Z,70.82
2023-01-19T12:14:55.968Z,70.84
2023-01-19T12:17:40.883Z,70.56
2023-01-19T12:20:38.689Z,70.41
2023-01-19T12:23:11.825Z,71.05
2023-01-19T12:26:23.191Z,70.74
2023-01-19T12:28:58.800Z,70.97
2023-01-19T12:31:29.126Z,70.97
2023-01-19T12:34:25.264Z,69.83
2023-01-19T12:36:57.546Z,70.11
2023-01-19T12:39:27.770Z,69.88
2023-01-19T12:42:13.403Z,69.96
2023-01-19T12:44:47.200Z,70.43
2023-01-19T12:47:24.608Z,70.28
2023-01-19T12:50:05.927Z,70.54
2023-01-19T12:52:51.737Z,70.18
2023-01-19T12:55:31.241Z,70.42
2023-01-19T12:58:07.221Z,70.83
2023-01-19T13:00:40.140Z,70.87
2023-01-19T13:03:16.354Z,70.31
2023-01-19T13:05:52.828Z,71.01
2023-01-19T13:08:25.594Z,70.72
2023-01-19T13:11:11.033Z,71.08
2023-01-19T13:14:05.424Z,70.81
2023-01-19T13:16:35.509Z,71.05
2023-01-19T13:19:05.625Z,70.97
2023-01-19T13:21:45.771Z,71.09
2023-01-19T13:24:19.188Z,71.15
2023-01-19T13:26:49.267Z,71.37
2023-01-19T13:29:30.722Z,71.40
2023-01-19T13:32:04.972Z,71.72
2023-01-19T13:34:47.898Z,71.56
2023-01-19T13:37:26.178Z,71.29
2023-01-19T13:39:57.244Z,71.30
2023-01-19T13:42:35.805Z,71.60
2023-01-19T13:45:27.679Z,71.58
2023-01-19T13:48:02.173Z,71.32
2023-01-19T13:50:36.095Z,71.23
2023-01-19T13:53:20.886Z,71.53
2023-01-19T13:56:20.898Z,71.27
2023-01-19T13:59:07.246Z,71.56
2023-01-19T14:01:40.067Z,71.85
2023-01-19T14:04:35.602Z,71.42
2023-01-19T14:07:13.401Z,71.80
2023-01-19T14:09:43.723Z,71.82
2023-01-19T14:12:17.678Z,72.02
2023-01-19T14:14:48.451Z,71.96
2023-01-19T14:17:23.837Z,71.57
2023-01-19T14:19:57.435Z,71.58
2023-01-19T14:22:49.245Z,71.88
2023-01-19T14:25:31.771Z,71.54
2023-01-19T14:28:35.593Z,72.27
2023-01-19T14:31:23.144Z,72.11
2023-01-19T14:33:55.619Z,71.94
2023-01-19T14:36:26.058Z,72.01
2023-01-19T14:38:59.421Z,72.52
2023-01-19T14:41:35.509Z,72.34
2023-01-19T14:44:11.656Z,72.18
2023-01-19T14:46:48.131Z,72.34
2023-01-19T14:49:36.686Z,72.70
2023-01-19T14:52:20.908Z,72.26
2023-01-19T14:54:52.065Z,72.35
2023-01-19T14:57:22.520Z,72.74
2023-01-19T14:59:57.144Z,72.33
2023-01-19T15:02:32.918Z,72.75
2023-01-19T15:05:06.404Z,72.89
2023-01-19T15:07:39.105Z,73.03
2023-01-19T15:10:22.755Z,73.16
2023-01-19T15:12:55.084Z,72.69
2023-01-19T15:15:33.293Z,72.66
2023-01-19T15:18:05.047Z,73.30
2023-01-19T15:20:35.151Z,72.92
2023-01-19T15:23:05.373Z,72.75
2023-01-19T15:25:35.635Z,72.80
2023-01-19T15:28:11.778Z,72.97
2023-01-19T15:30:41.963Z,72.97
2023-01-19T15:33:20.996Z,72.94
2023-01-19T15:35:51.732Z,73.20
2023-01-19T15:38:22.527Z,72.76
2023-01-19T15:40:52.764Z,73.31
2023-01-19T15:43:22.932Z,73.06
2023-01-19T15:46:02.770Z,72.98
2023-01-19T15:48:35.781Z,73.13
2023-01-19T15:51:06.199Z,72.99
2023-01-19T15:53:36.396Z,72.88
2023-01-19T15:56:07.159Z,73.56
2023-01-19T15:58:38.438Z,72.88
2023-01-19T16:01:15.478Z,72.97
2023-01-19T16:03:46.301Z,73.11
2023-01-19T16:06:18.003Z,72.75
2023-01-19T16:08:48.127Z,73.03
2023-01-19T16:11:18.839Z,73.22
2023-01-19T16:13:48.957Z,73.75
2023-01-19T16:16:21.842Z,73.14
2023-01-19T16:18:52.379Z,73.35
2023-01-19T16:21:22.681Z,73.27
2023-01-19T16:23:53.770Z,73.50
2023-01-19T16:26:34.693Z,73.18
2023-01-19T16:29:09.468Z,73.49
2023-01-19T16:31:41.804Z,73.55
2023-01-19T16:34:12.016Z,73.46
2023-01-19T16:36:43.612Z,73.53
2023-01-19T16:39:15.284Z,73.24
2023-01-19T16:41:45.916Z,73.47
2023-01-19T16:44:16.862Z,73.57
2023-01-19T16:46:49.949Z,73.60
2023-01-19T16:49:23.099Z,73.45
2023-01-19T16:51:58.554Z,73.48
2023-01-19T16:54:29.426Z,73.70
2023-01-19T16:56:59.662Z,73.70
2023-01-19T16:59:29.958Z,73.69
2023-01-19T17:02:00.445Z,73.26
2023-01-19T17:04:30.865Z,73.50
2023-01-19T17:07:01.003Z,73.55
2023-01-19T17:09:31.619Z,73.45
2023-01-19T17:12:01.874Z,73.48
2023-01-19T17:14:32.510Z,73.60
2023-01-19T17:17:02.770Z,73.67
2023-01-19T17:19:32.967Z,74.16
2023-01-19T17:22:03.065Z,73.41
2023-01-19T17:24:33.701Z,73.49
2023-01-19T17:27:03.948Z,73.70
2023-01-19T17:29:34.344Z,73.96
2023-01-19T17:32:07.376Z,73.66
2023-01-19T17:34:37.669Z,73.68
2023-01-19T17:37:07.801Z,73.39
2023-01-19T17:39:37.922Z,73.73
2023-01-19T17:42:08.079Z,73.45
2023-01-19T17:44:38.262Z,74.21
2023-01-19T17:47:08.453Z,73.52
2023-01-19T17:49:38.684Z,74.14
2023-01-19T17:52:09.792Z,73.76
2023-01-19T17:54:40.050Z,73.72
2023-01-19T17:57:10.179Z,73.83
2023-01-19T17:59:43.863Z,73.91
2023-01-19T18:02:14.469Z,73.49
2023-01-19T18:04:44.789Z,74.05
2023-01-19T18:07:15.643Z,74.17
2023-01-19T18:09:46.039Z,74.04
2023-01-19T18:12:20.255Z,74.08
2023-01-19T18:14:51.067Z,73.57
2023-01-19T18:17:21.204Z,73.85
2023-01-19T18:19:51.546Z,73.71
2023-01-19T18:22:21.759Z,73.71
2023-01-19T18:24:52.414Z,73.70
2023-01-19T18:27:23.033Z,73.83
2023-01-19T18:29:53.193Z,73.68
2023-01-19T18:32:25.250Z,73.88
2023-01-19T18:34:58.310Z,74.08
2023-01-19T18:37:35.230Z,74.08
2023-01-19T18:40:05.860Z,74.51
2023-01-19T18:42:36.009Z,74.09
2023-01-19T18:45:06.786Z,74.25
2023-01-19T18:47:37.007Z,74.30
2023-01-19T18:50:07.440Z,74.18
2023-01-19T18:52:37.674Z,73.99
2023-01-19T18:55:08.221Z,74.13
2023-01-19T18:57:38.603Z,74.01
2023-01-19T19:00:09.204Z,74.64
2023-01-19T19:02:39.369Z,74.48
2023-01-19T19:05:09.798Z,74.26
2023-01-19T19:07:39.968Z,74.45
2023-01-19T19:10:11.057Z,74.06
2023-01-19T19:12:41.501Z,74.03
2023-01-19T19:15:12.029Z,74.12
2023-01-19T19:17:42.213Z,74.18
2023-01-19T19:20:13.069Z,74.41
2023-01-19T19:22:43.379Z,74.58
2023-01-19T19:25:13.565Z,74.19
2023-01-19T19:27:45.579Z,74.28
2023-01-19T19:30:16.094Z,74.75
2023-01-19T19:32:51.507Z,74.01
2023-01-19T19:35:22.604Z,74.64
2023-01-19T19:37:57.647Z,74.48
2023-01-19T19:40:28.349Z,74.23
2023-01-19T19:42:58.928Z,74.59
2023-01-19T19:45:29.183Z,74.38
2023-01-19T19:47:59.334Z,74.53
2023-01-19T19:50:29.384Z,74.42
2023-01-19T19:53:00.435Z,74.15
2023-01-19T19:55:30.652Z,74.00
2023-01-19T19:58:00.880Z,74.37
2023-01-19T20:00:31.215Z,74.30
2023-01-19T20:03:02.306Z,74.54
2023-01-19T20:05:35.974Z,74.55
2023-01-19T20:08:06.139Z,74.36
2023-01-19T20:10:37.648Z,74.66
2023-01-19T20:13:09.282Z,74.12
2023-01-19T20:15:39.699Z,74.43
2023-01-19T20:18:09.953Z,74.22
2023-01-19T20:20:40.136Z,74.19
2023-01-19T20:23:10.391Z,74.36
2023-01-19T20:25:40.546Z,74.40
2023-01-19T20:28:10.639Z,74.08
2023-01-19T20:30:40.843Z,74.62
2023-01-19T20:33:11.765Z,73.97
2023-01-19T20:35:42.019Z,74.12
2023-01-19T20:38:12.216Z,74.24
2023-01-19T20:40:42.431Z,74.44
2023-01-19T20:43:12.618Z,74.24
2023-01-19T20:45:42.949Z,74.50
2023-01-19T20:48:13.201Z,73.85
2023-01-19T20:50:43.392Z,74.14
2023-01-19T20:53:13.890Z,74.20
2023-01-19T20:55:44.285Z,73.97
2023-01-19T20:58:14.761Z,74.04
2023-01-19T21:00:46.115Z,74.35
2023-01-19T21:03:17.096Z,74.46
2023-01-19T21:05:48.691Z,74.29
2023-01-19T21:08:18.944Z,74.02
2023-01-19T21:10:49.122Z,74.00
2023-01-19T21:13:19.234Z,74.15
2023-01-19T21:15:49.401Z,74.35
2023-01-19T21:18:19.797Z,74.36
2023-01-19T21:20:50.113Z,74.31
2023-01-19T21:23:21.520Z,74.28
2023-01-19T21:25:57.311Z,74.44
2023-01-19T21:28:28.817Z,74.19
2023-01-19T21:31:06.368Z,74.39
2023-01-19T21:33:36.538Z,74.02
2023-01-19T21:36:07.065Z,74.19
2023-01-19T21:38:38.295Z,74.66
2023-01-19T21:41:12.789Z,74.34
2023-01-19T21:43:43.378Z,74.06
2023-01-19T21:46:29.671Z,74.24
2023-01-19T21:49:02.266Z,74.50
2023-01-19T21:51:35.035Z,74.36
2023-01-19T21:54:06.830Z,74.41
2023-01-19T21:56:38.251Z,74.23
2023-01-19T21:59:08.448Z,74.25
2023-01-19T22:01:38.700Z,74.77
2023-01-19T22:04:10.320Z,74.27
2023-01-19T22:06:49.142Z,74.40
2023-01-19T22:09:23.685Z,74.08
2023-01-19T22:11:53.913Z,74.34
2023-01-19T22:14:24.283Z,74.31
2023-01-19T22:16:54.566Z,74.69
2023-01-19T22:19:24.805Z,74.31
2023-01-19T22:21:54.982Z,74.59
2023-01-19T22:24:25.078Z,74.45
2023-01-19T22:26:55.669Z,74.72
2023-01-19T22:29:25.825Z,74.23
2023-01-19T22:31:56.034Z,74.36
2023-01-19T22:34:26.392Z,74.48
2023-01-19T22:36:56.613Z,74.57
2023-01-19T22:39:27.321Z,74.63
2023-01-19T22:41:57.448Z,74.67
2023-01-19T22:44:27.625Z,74.75
2023-01-19T22:46:57.791Z,74.43
2023-01-19T22:49:28.324Z,74.78
2023-01-19T22:51:58.440Z,74.65
2023-01-19T22:54:30.055Z,74.75
2023-01-19T22:57:00.320Z,74.80
2023-01-19T22:59:30.481Z,74.96
2023-01-19T23:02:00.708Z,75.05
2023-01-19T23:04:30.881Z,74.82
2023-01-19T23:07:01.007Z,74.91
2023-01-19T23:09:31.221Z,74.85
2023-01-19T23:12:01.424Z,74.96
2023-01-19T23:14:31.571Z,74.85
2023-01-19T23:17:01.781Z,74.41
2023-01-19T23:19:31.935Z,74.63
2023-01-19T23:22:02.099Z,74.79
2023-01-19T23:24:32.275Z,74.58
2023-01-19T23:27:02.788Z,74.82
2023-01-19T23:29:32.954Z,74.47
2023-01-19T23:32:03.893Z,74.48
2023-01-19T23:34:34.003Z,74.50
2023-01-19T23:37:04.109Z,74.41
2023-01-19T23:39:34.215Z,74.60
2023-01-19T23:42:05.274Z,74.77
2023-01-19T23:44:35.932Z,74.92
2023-01-19T23:47:06.056Z,74.90
2023-01-19T23:49:36.249Z,75.01
2023-01-19T23:52:06.349Z,74.98
2023-01-19T23:54:36.640Z,74.27
2023-01-19T23:57:06.779Z,74.76
2023-01-19T23:59:37.162Z,74.65
